Time;durP1;ratioP1;P1;durP2;ratioP2;P2;SDS_P1;SDS_P2;PMS_P1;PMS_P2;Temp;Humidity;BMP_temperature;BMP_pressure;BME280_temperature;BME280_humidity;BME280_pressure;Samples;Min_cycle;Max_cycle;Signal;HPM_P1;HPM_P2
2023/06/19 00:00:48;;;;;;;27.38;21.45;;;;;;;17.27;98.59;97678.63;10452060;28;20058;-50
2023/06/19 00:05:47;;;;;;;27.08;21.65;;;;;;;17.24;98.53;97673.44;10452265;28;20040;-49
2023/06/19 00:10:48;;;;;;;35.20;25.30;;;;;;;17.16;98.38;97672.81;10450060;28;20047;-49
2023/06/19 00:15:46;;;;;;;36.47;26.20;;;;;;;17.09;98.47;97672.13;10451821;28;20509;-49
2023/06/19 00:20:46;;;;;;;42.35;27.30;;;;;;;16.92;98.70;97651.66;10451742;28;20579;-51
2023/06/19 00:25:45;;;;;;;40.03;26.35;;;;;;;17.02;98.84;97665.34;10452400;28;20593;-49
2023/06/19 00:30:44;;;;;;;40.15;27.77;;;;;;;16.99;99.18;97661.06;10450992;28;20375;-48
2023/06/19 00:35:43;;;;;;;36.85;27.48;;;;;;;17.02;99.33;97662.72;10451458;28;20059;-48
2023/06/19 00:40:42;;;;;;;42.85;26.90;;;;;;;17.04;99.33;97659.16;10450910;28;20075;-49
2023/06/19 00:45:41;;;;;;;32.70;23.13;;;;;;;16.95;100.00;97653.31;10451166;28;20018;-51
2023/06/19 00:50:40;;;;;;;35.53;22.60;;;;;;;16.88;100.00;97645.63;10449786;28;20470;-51
2023/06/19 00:55:39;;;;;;;31.08;23.33;;;;;;;16.91;100.00;97642.06;10450961;28;20545;-50
2023/06/19 01:00:39;;;;;;;31.30;24.40;;;;;;;16.90;100.00;97646.44;10448814;28;20456;-48
2023/06/19 01:05:38;;;;;;;28.92;22.48;;;;;;;16.85;100.00;97648.34;10450760;28;20083;-50
2023/06/19 01:10:43;;;;;;;31.38;22.17;;;;;;;16.80;100.00;97649.34;10449600;28;20028;-49
2023/06/19 01:15:43;;;;;;;24.40;18.98;;;;;;;16.61;100.00;97644.59;10449349;28;20142;-48
2023/06/19 01:20:42;;;;;;;28.23;18.58;;;;;;;16.43;100.00;97606.66;10449075;28;20111;-51
2023/06/19 01:25:41;;;;;;;27.15;19.15;;;;;;;16.57;100.00;97642.97;10449063;28;20079;-50
2023/06/19 01:30:42;;;;;;;31.77;20.05;;;;;;;16.63;100.00;97642.81;10448907;28;20055;-50
2023/06/19 01:35:43;;;;;;;28.70;20.33;;;;;;;16.63;100.00;97637.56;10449520;28;20119;-50
2023/06/19 01:40:43;;;;;;;26.73;19.77;;;;;;;16.63;100.00;97641.91;10448630;28;20118;-51
2023/06/19 01:45:42;;;;;;;27.30;19.85;;;;;;;16.59;100.00;97629.84;10448437;28;20048;-51
2023/06/19 01:50:46;;;;;;;25.73;17.58;;;;;;;16.18;100.00;97577.63;10447639;28;20074;-51
2023/06/19 01:55:45;;;;;;;29.25;18.05;;;;;;;16.30;100.00;97632.31;10448543;28;20078;-50
2023/06/19 02:00:44;;;;;;;23.20;17.75;;;;;;;16.04;100.00;97638.22;10447548;28;20119;-51
2023/06/19 02:05:43;;;;;;;23.65;18.25;;;;;;;15.95;100.00;97654.16;10447803;28;20047;-51
2023/06/19 02:10:42;;;;;;;31.90;21.88;;;;;;;15.93;100.00;97660.28;10446933;28;20058;-49
2023/06/19 02:15:41;;;;;;;32.90;20.33;;;;;;;15.87;100.00;97658.69;10448531;28;20027;-50
2023/06/19 02:20:40;;;;;;;31.88;22.75;;;;;;;15.93;100.00;97660.28;10447598;28;20134;-50
2023/06/19 02:25:39;;;;;;;32.60;22.48;;;;;;;15.94;100.00;97665.50;10447121;28;20128;-49
2023/06/19 02:30:38;;;;;;;36.78;23.45;;;;;;;16.00;100.00;97669.75;10446985;28;20026;-50
2023/06/19 02:35:37;;;;;;;39.45;23.58;;;;;;;16.03;100.00;97662.66;10447224;28;20030;-51
2023/06/19 02:40:36;;;;;;;36.50;24.30;;;;;;;16.02;100.00;97674.03;10447462;28;20518;-51
2023/06/19 02:45:35;;;;;;;36.95;24.80;;;;;;;16.01;100.00;97669.69;10447345;28;20416;-51
2023/06/19 02:50:34;;;;;;;42.72;25.05;;;;;;;16.03;100.00;97683.59;10445950;28;20028;-50
2023/06/19 02:55:33;;;;;;;34.80;23.92;;;;;;;15.98;100.00;97695.94;10447065;28;20060;-50
2023/06/19 03:00:32;;;;;;;29.85;20.02;;;;;;;15.78;100.00;97692.88;10446475;28;20469;-49
2023/06/19 03:05:31;;;;;;;26.80;19.52;;;;;;;15.67;100.00;97691.38;10446138;28;20040;-50
2023/06/19 03:10:30;;;;;;;29.27;20.60;;;;;;;15.75;100.00;97692.97;10446811;28;20078;-50
2023/06/19 03:15:29;;;;;;;36.50;22.80;;;;;;;15.51;100.00;97636.84;10446831;28;20062;-51
2023/06/19 03:20:28;;;;;;;45.00;23.85;;;;;;;15.88;100.00;97689.22;10448541;28;20028;-49
2023/06/19 03:25:33;;;;;;;33.60;23.27;;;;;;;15.87;100.00;97682.25;10453686;28;20128;-49
2023/06/19 03:30:32;;;;;;;41.90;23.55;;;;;;;16.02;100.00;97689.75;10453578;28;20515;-52
2023/06/19 03:35:31;;;;;;;41.53;27.48;;;;;;;16.00;100.00;97688.91;10453516;28;20505;-51
2023/06/19 03:40:30;;;;;;;;;;;;;;;16.09;100.00;97682.59;10453754;28;20024;-50
2023/06/19 03:45:28;;;;;;;80.97;32.67;;;;;;;16.28;100.00;97689.09;10453461;28;19916;-49
2023/06/19 03:50:27;;;;;;;76.82;29.92;;;;;;;16.45;100.00;97677.34;10452166;28;20032;-51
2023/06/19 03:55:26;;;;;;;57.50;28.10;;;;;;;16.47;100.00;97686.88;10453060;28;20030;-50
2023/06/19 04:00:26;;;;;;;52.08;27.02;;;;;;;16.59;100.00;97680.47;10452704;28;20530;-49
2023/06/19 04:05:25;;;;;;;61.55;24.95;;;;;;;16.73;100.00;97680.94;10452013;28;20116;-50
2023/06/19 04:10:24;;;;;;;71.55;24.90;;;;;;;16.83;100.00;97676.34;10451819;28;20123;-50
2023/06/19 04:15:23;;;;;;;39.55;23.48;;;;;;;17.01;100.00;97692.50;10452568;28;20016;-50
2023/06/19 04:20:22;;;;;;;35.47;21.58;;;;;;;17.16;100.00;97692.03;10451237;28;20458;-50
2023/06/19 04:25:22;;;;;;;46.83;22.85;;;;;;;17.32;100.00;97695.94;10450742;28;20035;-50
2023/06/19 04:30:21;;;;;;;27.52;21.15;;;;;;;17.40;99.86;97687.84;10450457;28;20078;-51
2023/06/19 04:35:20;;;;;;;27.63;19.67;;;;;;;17.44;99.01;97672.88;10449539;28;20043;-51
2023/06/19 04:40:19;;;;;;;28.45;20.05;;;;;;;17.53;98.64;97672.59;10450025;28;20020;-51
2023/06/19 04:45:17;;;;;;;25.13;18.83;;;;;;;17.65;99.02;97677.47;10449770;28;20464;-49
2023/06/19 04:50:16;;;;;;;25.35;19.00;;;;;;;17.80;96.33;97677.94;10448948;28;20031;-48
2023/06/19 04:55:15;;;;;;;22.13;17.95;;;;;;;17.79;96.58;97671.81;10447184;28;20034;-49
2023/06/19 05:00:18;;;;;;;20.48;16.00;;;;;;;17.71;95.13;97679.06;10449051;28;20071;-49
2023/06/19 05:05:17;;;;;;;22.90;16.50;;;;;;;17.63;95.00;97681.91;10448231;28;20551;-52
2023/06/19 05:10:16;;;;;;;22.48;17.27;;;;;;;17.54;95.48;97676.94;10448859;28;20028;-50
2023/06/19 05:15:15;;;;;;;21.02;17.38;;;;;;;17.62;95.81;97677.56;10449394;28;20504;-51
2023/06/19 05:20:15;;;;;;;22.92;15.02;;;;;;;17.59;94.95;97687.28;10448840;28;20047;-51
2023/06/19 05:25:14;;;;;;;18.67;15.27;;;;;;;17.66;95.51;97684.47;10447881;28;20119;-51
2023/06/19 05:30:13;;;;;;;19.38;13.82;;;;;;;17.77;95.20;97684.13;10449106;28;20039;-51
2023/06/19 05:35:12;;;;;;;16.67;14.13;;;;;;;17.80;93.92;97691.06;10449017;28;20035;-50
2023/06/19 05:40:11;;;;;;;17.67;14.63;;;;;;;17.89;93.20;97685.53;10447922;28;20108;-50
2023/06/19 05:45:10;;;;;;;18.70;15.18;;;;;;;18.05;93.78;97691.16;10448330;28;20131;-50
2023/06/19 05:50:09;;;;;;;22.30;15.02;;;;;;;18.28;93.21;97693.88;10447502;28;20062;-51
2023/06/19 05:55:10;;;;;;;18.90;13.07;;;;;;;18.12;91.56;97655.91;10447440;28;20063;-51
2023/06/19 06:00:14;;;;;;;17.02;12.50;;;;;;;18.48;91.57;97701.13;10447739;28;20066;-51
2023/06/19 06:05:13;;;;;;;16.63;13.02;;;;;;;18.64;90.91;97700.56;10440133;28;20122;-51
2023/06/19 06:10:13;;;;;;;16.17;12.70;;;;;;;18.65;89.59;97691.81;10444740;28;20030;-51
2023/06/19 06:15:12;;;;;;;14.75;12.68;;;;;;;18.85;88.80;97696.38;10445978;28;20063;-49
2023/06/19 06:20:12;;;;;;;16.67;11.98;;;;;;;18.88;86.93;97698.88;10444450;28;20468;-49
2023/06/19 06:25:11;;;;;;;16.73;11.30;;;;;;;19.19;85.35;97703.94;10441917;28;20118;-49
2023/06/19 06:30:11;;;;;;;14.02;11.25;;;;;;;19.39;85.20;97696.16;10446367;28;20475;-51
2023/06/19 06:35:10;;;;;;;16.23;11.38;;;;;;;19.75;84.14;97708.88;10444790;28;20064;-50
2023/06/19 06:40:10;;;;;;;12.65;11.18;;;;;;;19.95;82.81;97704.59;10446822;28;20546;-50
2023/06/19 06:45:10;;;;;;;13.43;10.32;;;;;;;20.05;82.64;97704.16;10446717;28;20151;-51
2023/06/19 06:50:09;;;;;;;13.70;11.50;;;;;;;20.35;82.73;97692.44;10446645;28;20111;-49
2023/06/19 06:55:09;;;;;;;11.45;10.25;;;;;;;20.65;80.25;97701.72;10447033;28;20074;-51
2023/06/19 07:00:12;;;;;;;15.60;10.80;;;;;;;20.92;77.65;97694.41;10453399;28;20066;-50
2023/06/19 07:05:11;;;;;;;10.30;8.90;;;;;;;21.12;78.96;97712.00;10452031;28;20459;-51
2023/06/19 07:10:10;;;;;;;13.52;9.60;;;;;;;21.43;76.77;97699.22;10454490;28;20449;-51
2023/06/19 07:15:09;;;;;;;11.52;8.93;;;;;;;21.70;71.74;97702.38;10453780;28;20060;-52
2023/06/19 07:20:08;;;;;;;14.25;9.45;;;;;;;21.80;69.96;97714.22;10457386;28;20060;-52
2023/06/19 07:25:10;;;;;;;12.57;8.82;;;;;;;21.95;69.30;97707.38;10450902;28;20603;-52
2023/06/19 07:30:10;;;;;;;8.00;6.15;;;;;;;22.07;59.58;97692.75;10453035;28;20055;-51
2023/06/19 07:35:11;;;;;;;12.30;6.97;;;;;;;22.38;61.65;97694.72;10452439;28;20067;-50
2023/06/19 07:40:10;;;;;;;7.97;6.25;;;;;;;22.70;58.70;97701.06;10450770;28;20503;-51
2023/06/19 07:45:10;;;;;;;7.18;6.20;;;;;;;22.24;54.43;97592.31;10454169;28;20062;-50
2023/06/19 07:50:10;;;;;;;7.53;6.45;;;;;;;22.92;51.95;97699.97;10456069;28;20146;-50
2023/06/19 07:55:09;;;;;;;8.27;5.70;;;;;;;22.99;53.10;97690.78;10455465;28;20529;-52
2023/06/19 08:00:11;;;;;;;8.68;6.22;;;;;;;23.30;52.03;97691.78;10454502;28;20047;-52
2023/06/19 08:05:10;;;;;;;7.93;6.38;;;;;;;23.53;52.12;97704.69;10450495;28;20083;-51
2023/06/19 08:10:09;;;;;;;8.50;6.05;;;;;;;23.54;51.78;97690.53;10444466;28;20123;-52
2023/06/19 08:15:10;;;;;;;9.68;6.13;;;;;;;23.62;51.35;97696.25;10448525;28;20059;-51
2023/06/19 08:20:09;;;;;;;8.30;6.00;;;;;;;23.59;52.00;97696.41;10445003;28;20450;-52
2023/06/19 08:25:08;;;;;;;6.38;5.63;;;;;;;23.61;51.93;97693.69;10454933;28;20059;-52
2023/06/19 08:30:08;;;;;;;7.57;5.82;;;;;;;23.76;53.05;97692.84;10453580;28;20063;-51
2023/06/19 08:35:07;;;;;;;8.27;6.03;;;;;;;23.74;51.86;97701.81;10454331;28;20060;-51
2023/06/19 08:40:09;;;;;;;7.65;5.50;;;;;;;23.85;50.05;97697.63;10450886;28;20513;-51
2023/06/19 08:45:08;;;;;;;7.25;5.75;;;;;;;24.05;50.86;97693.88;10453233;28;20119;-50
2023/06/19 08:50:08;;;;;;;7.32;6.10;;;;;;;24.22;50.73;97702.69;10451891;28;20075;-51
2023/06/19 08:55:08;;;;;;;10.90;6.18;;;;;;;24.12;49.92;97689.03;10450100;28;20082;-51
2023/06/19 09:00:09;;;;;;;7.18;6.03;;;;;;;24.18;50.59;97694.03;10438942;28;20677;-51
2023/06/19 09:05:13;;;;;;;7.03;6.10;;;;;;;24.44;50.02;97705.78;10448987;28;20504;-53
2023/06/19 09:10:18;;;;;;;7.55;5.85;;;;;;;24.48;47.29;97682.63;10450932;28;20063;-52
2023/06/19 09:15:18;;;;;;;7.05;5.90;;;;;;;24.24;46.95;97643.31;10449196;28;20139;-52
2023/06/19 09:20:26;;;;;;;7.20;5.50;;;;;;;24.84;46.77;97684.00;10451054;28;20433;-52
2023/06/19 09:25:26;;;;;;;7.43;5.82;;;;;;;25.04;46.25;97690.81;10450521;28;20106;-52
2023/06/19 09:30:25;;;;;;;8.02;6.07;;;;;;;24.91;46.51;97688.03;10450202;28;20119;-51
2023/06/19 09:35:24;;;;;;;8.45;5.85;;;;;;;25.01;47.63;97691.00;10451514;28;20031;-52
2023/06/19 09:40:24;;;;;;;6.85;5.45;;;;;;;25.13;46.89;97695.56;10449796;28;20159;-51
2023/06/19 09:45:26;;;;;;;7.35;5.55;;;;;;;25.24;46.16;97694.91;10449473;28;20127;-51
2023/06/19 09:50:27;;;;;;;7.93;5.88;;;;;;;25.29;46.33;97698.13;10444032;28;20495;-52
2023/06/19 09:55:30;;;;;;;8.68;5.80;;;;;;;25.39;45.13;97687.81;10446781;28;20131;-52
2023/06/19 10:00:32;;;;;;;9.48;5.93;;;;;;;25.43;45.29;97679.50;10449870;28;20094;-52
2023/06/19 10:05:32;;;;;;;7.22;5.40;;;;;;;25.34;45.68;97685.44;10448353;28;20135;-52
2023/06/19 10:10:31;;;;;;;7.38;5.47;;;;;;;25.46;45.19;97678.50;10448539;28;20051;-52
2023/06/19 10:15:31;;;;;;;7.15;5.57;;;;;;;25.45;46.58;97682.09;10447699;28;20052;-50
2023/06/19 10:20:37;;;;;;;6.45;5.20;;;;;;;25.63;44.17;97680.97;10443954;28;20111;-52
2023/06/19 10:25:38;;;;;;;6.53;5.35;;;;;;;26.17;43.22;97678.34;10445413;28;20136;-52
2023/06/19 10:30:37;;;;;;;5.88;4.85;;;;;;;26.27;41.37;97675.13;10446527;28;20274;-52
2023/06/19 10:35:40;;;;;;;6.10;5.45;;;;;;;26.27;42.19;97643.19;10447815;28;20040;-50
2023/06/19 10:40:39;;;;;;;7.05;5.43;;;;;;;26.19;42.06;97674.75;10447308;28;20127;-50
2023/06/19 10:45:38;;;;;;;6.65;5.25;;;;;;;26.19;43.29;97659.66;10446254;28;20060;-52
2023/06/19 10:50:42;;;;;;;6.70;5.25;;;;;;;26.25;43.61;97671.69;10446350;28;20483;-52
2023/06/19 10:55:41;;;;;;;7.05;5.10;;;;;;;26.41;43.03;97666.22;10448201;28;20056;-52
2023/06/19 11:00:40;;;;;;;7.18;5.35;;;;;;;26.58;41.72;97671.25;10447784;28;20054;-52
2023/06/19 11:05:43;;;;;;;6.88;5.47;;;;;;;26.50;41.14;97660.28;10446727;28;20080;-50
2023/06/19 11:10:42;;;;;;;7.82;6.07;;;;;;;26.02;42.41;97665.19;10441956;28;20144;-52
2023/06/19 11:15:41;;;;;;;8.15;5.75;;;;;;;26.07;43.02;97631.22;10446367;28;20115;-49
2023/06/19 11:20:52;;;;;;;9.15;6.25;;;;;;;26.45;42.99;97646.44;10447831;28;20035;-52
2023/06/19 11:25:51;;;;;;;9.27;5.70;;;;;;;26.85;40.99;97639.28;10446164;28;20115;-51
2023/06/19 11:31:01;;;;;;;6.55;5.70;;;;;;;26.23;39.07;97623.06;10447580;28;20028;-51
2023/06/19 11:36:01;;;;;;;8.25;5.95;;;;;;;25.90;38.23;97643.81;10447448;28;20487;-52
2023/06/19 11:41:00;;;;;;;7.93;6.07;;;;;;;26.03;40.56;97638.53;10448777;28;20055;-52
2023/06/19 11:46:04;;;;;;;7.68;5.13;;;;;;;26.30;37.96;97638.53;10455074;28;20052;-53
2023/06/19 11:51:03;;;;;;;11.80;5.53;;;;;;;26.19;39.54;97645.50;10452721;28;20056;-53
2023/06/19 11:56:02;;;;;;;9.70;5.70;;;;;;;26.23;39.42;97641.69;10454732;28;20046;-52
2023/06/19 12:01:02;;;;;;;8.40;5.28;;;;;;;26.43;39.72;97635.03;10454775;28;20071;-51
2023/06/19 12:06:01;;;;;;;6.85;4.95;;;;;;;26.35;37.49;97632.91;10453889;28;20483;-53
2023/06/19 12:11:00;;;;;;;7.15;5.20;;;;;;;26.40;36.14;97630.78;10453370;28;20051;-53
2023/06/19 12:15:59;;;;;;;5.75;4.68;;;;;;;26.62;35.89;97624.84;10448491;28;20015;-50
2023/06/19 12:20:58;;;;;;;8.38;4.80;;;;;;;26.35;35.92;97638.22;10451335;28;20024;-50
2023/06/19 12:25:57;;;;;;;7.13;4.97;;;;;;;26.29;35.12;97626.19;10451286;28;20039;-52
2023/06/19 12:30:56;;;;;;;6.93;4.80;;;;;;;25.87;36.34;97640.47;10453212;28;20759;-51
2023/06/19 12:35:55;;;;;;;7.60;4.68;;;;;;;26.10;34.35;97626.53;10452619;28;20059;-52
2023/06/19 12:40:54;;;;;;;6.55;5.20;;;;;;;26.33;35.18;97632.16;10451256;28;20127;-52
2023/06/19 12:45:53;;;;;;;7.65;5.28;;;;;;;26.54;35.42;97621.88;10451423;28;20035;-52
2023/06/19 12:50:52;;;;;;;5.90;4.80;;;;;;;26.88;34.79;97616.91;10451654;28;20522;-52
2023/06/19 12:55:51;;;;;;;6.97;4.78;;;;;;;26.94;34.12;97614.69;10450574;28;20554;-54
2023/06/19 13:00:50;;;;;;;5.90;5.03;;;;;;;26.74;34.44;97605.38;10453148;28;20554;-53
2023/06/19 13:05:49;;;;;;;7.68;4.90;;;;;;;26.96;34.70;97614.56;10451505;28;20491;-52
2023/06/19 13:10:48;;;;;;;5.60;4.97;;;;;;;26.98;35.08;97618.00;10452003;28;20502;-54
2023/06/19 13:15:47;;;;;;;9.50;5.00;;;;;;;26.82;35.32;97617.31;10450182;28;20114;-53
2023/06/19 13:20:47;;;;;;;7.93;4.30;;;;;;;26.78;35.81;97617.50;10448317;28;20028;-50
2023/06/19 13:25:46;;;;;;;6.43;4.30;;;;;;;26.93;35.17;97602.34;10450987;28;20063;-52
2023/06/19 13:30:46;;;;;;;5.43;4.30;;;;;;;27.08;33.64;97603.06;10441175;28;20105;-52
2023/06/19 13:35:45;;;;;;;6.00;4.88;;;;;;;27.02;34.87;97602.63;10451162;28;20497;-53
2023/06/19 13:40:44;;;;;;;5.13;4.43;;;;;;;27.02;34.01;97595.50;10449839;28;20445;-52
2023/06/19 13:45:43;;;;;;;6.50;4.85;;;;;;;27.01;34.01;97601.78;10450444;28;20531;-52
2023/06/19 13:50:42;;;;;;;8.50;5.18;;;;;;;27.03;35.50;97593.69;10448920;28;20817;-53
2023/06/19 13:55:41;;;;;;;6.82;4.25;;;;;;;26.98;33.79;97604.69;10449086;28;20388;-52
2023/06/19 14:00:40;;;;;;;5.57;4.57;;;;;;;27.06;33.94;97601.47;10447801;28;20097;-52
2023/06/19 14:05:39;;;;;;;5.35;4.30;;;;;;;27.08;32.46;97602.22;10442530;28;20143;-53
2023/06/19 14:10:38;;;;;;;5.85;4.18;;;;;;;27.41;32.19;97601.63;10446447;28;20071;-52
2023/06/19 14:15:37;;;;;;;6.85;5.15;;;;;;;27.65;33.61;97604.34;10446260;28;20051;-51
2023/06/19 14:20:36;;;;;;;6.28;5.40;;;;;;;27.53;35.25;97602.56;10447840;28;20043;-52
2023/06/19 14:25:35;;;;;;;7.00;4.85;;;;;;;27.36;35.55;97593.09;10439631;28;20148;-53
2023/06/19 14:30:34;;;;;;;6.00;4.90;;;;;;;27.54;36.66;97588.25;10437059;28;20019;-50
2023/06/19 14:35:33;;;;;;;6.45;5.00;;;;;;;27.35;37.08;97580.72;10442675;28;20022;-51
2023/06/19 14:40:32;;;;;;;8.70;5.10;;;;;;;27.09;37.00;97594.09;10446773;28;20063;-51
2023/06/19 14:45:31;;;;;;;8.65;5.22;;;;;;;26.99;37.68;97572.59;10449629;28;20032;-51
2023/06/19 14:50:30;;;;;;;10.35;5.15;;;;;;;27.27;37.37;97586.63;10447356;28;20483;-52
2023/06/19 14:55:29;;;;;;;9.23;5.50;;;;;;;27.35;37.22;97573.59;10448538;28;20036;-52
2023/06/19 15:00:28;;;;;;;6.70;5.18;;;;;;;27.15;37.91;97563.53;10444553;28;20028;-52
2023/06/19 15:05:27;;;;;;;7.95;4.82;;;;;;;27.02;38.09;97565.34;10438152;28;20229;-51
2023/06/19 15:10:25;;;;;;;7.75;5.03;;;;;;;26.84;38.78;97573.69;10442765;28;20158;-51
2023/06/19 15:15:24;;;;;;;6.75;5.55;;;;;;;26.72;38.67;97570.03;10445666;28;20047;-51
2023/06/19 15:20:23;;;;;;;7.10;5.30;;;;;;;26.76;38.28;97565.34;10450159;28;20036;-54
2023/06/19 15:25:22;;;;;;;6.63;4.68;;;;;;;26.81;38.22;97568.53;10452288;28;20024;-52
2023/06/19 15:30:21;;;;;;;6.97;5.00;;;;;;;26.61;36.77;97577.06;10453152;28;20115;-52
2023/06/19 15:35:20;;;;;;;5.70;4.90;;;;;;;26.74;37.04;97565.44;10450634;28;20039;-51
2023/06/19 15:40:19;;;;;;;9.13;4.85;;;;;;;26.78;37.92;97563.44;10453063;28;20557;-52
2023/06/19 15:45:18;;;;;;;5.70;5.00;;;;;;;26.76;38.21;97565.34;10451012;28;20068;-52
2023/06/19 15:50:17;;;;;;;8.10;5.65;;;;;;;26.58;38.91;97565.66;10452034;28;20032;-51
2023/06/19 15:55:16;;;;;;;8.38;5.45;;;;;;;26.32;38.57;97561.28;10446352;28;20020;-51
2023/06/19 16:00:16;;;;;;;7.22;5.30;;;;;;;26.37;39.16;97569.81;10450540;28;20036;-52
2023/06/19 16:05:16;;;;;;;7.55;5.47;;;;;;;26.53;38.89;97558.94;10450388;28;20135;-51
2023/06/19 16:10:15;;;;;;;8.23;5.40;;;;;;;26.50;38.98;97570.66;10447078;28;20194;-50
2023/06/19 16:15:17;;;;;;;7.32;5.22;;;;;;;26.37;38.49;97540.56;10451067;28;20438;-50
2023/06/19 16:20:16;;;;;;;10.70;6.05;;;;;;;26.57;38.66;97576.41;10450446;28;20126;-52
2023/06/19 16:25:15;;;;;;;6.75;5.25;;;;;;;26.31;39.17;97583.53;10450772;28;20038;-54
2023/06/19 16:30:15;;;;;;;8.07;5.53;;;;;;;26.31;38.65;97573.72;10449247;28;20553;-53
2023/06/19 16:35:14;;;;;;;7.95;5.38;;;;;;;26.42;38.81;97575.66;10450765;28;20059;-53
2023/06/19 16:40:13;;;;;;;8.93;5.70;;;;;;;26.50;39.03;97578.63;10449338;28;20107;-53
2023/06/19 16:45:12;;;;;;;8.82;5.78;;;;;;;26.53;38.31;97574.91;10450648;28;20042;-53
2023/06/19 16:50:11;;;;;;;9.00;5.13;;;;;;;26.49;39.07;97576.94;10448407;28;20280;-52
2023/06/19 16:55:10;;;;;;;6.15;5.20;;;;;;;26.25;39.38;97583.91;10448545;28;20419;-53
2023/06/19 17:00:10;;;;;;;7.10;5.63;;;;;;;26.36;39.64;97581.41;10450650;28;20036;-52
2023/06/19 17:05:09;;;;;;;7.15;4.93;;;;;;;26.44;40.14;97587.06;10448360;28;20075;-51
2023/06/19 17:10:09;;;;;;;9.00;5.82;;;;;;;26.24;39.81;97591.06;10449866;28;20063;-54
2023/06/19 17:15:08;;;;;;;7.90;5.82;;;;;;;26.24;40.39;97601.69;10447891;28;20140;-51
2023/06/19 17:20:08;;;;;;;7.20;6.10;;;;;;;26.11;43.16;97596.34;10448911;28;20086;-52
2023/06/19 17:25:08;;;;;;;9.60;6.68;;;;;;;25.98;45.65;97608.72;10448310;28;20559;-53
2023/06/19 17:30:09;;;;;;;12.55;7.55;;;;;;;25.67;46.20;97600.09;10445776;28;20122;-53
2023/06/19 17:35:11;;;;;;;11.52;7.30;;;;;;;25.58;47.46;97619.28;10448216;28;20487;-53
2023/06/19 17:40:12;;;;;;;9.95;6.82;;;;;;;25.10;47.64;97622.25;10447291;28;20074;-53
2023/06/19 17:45:11;;;;;;;9.27;6.82;;;;;;;24.82;49.00;97623.06;10444562;28;20094;-52
2023/06/19 17:50:13;;;;;;;10.45;6.80;;;;;;;24.48;49.87;97611.84;10445614;28;20040;-53
2023/06/19 17:55:13;;;;;;;10.93;7.20;;;;;;;24.30;50.33;97631.50;10447770;28;20509;-51
2023/06/19 18:00:12;;;;;;;11.82;7.03;;;;;;;23.98;51.43;97628.88;10447181;28;20169;-51
2023/06/19 18:05:11;;;;;;;11.95;7.10;;;;;;;23.62;52.82;97643.25;10446740;28;20067;-53
2023/06/19 18:10:10;;;;;;;11.35;7.82;;;;;;;23.12;55.00;97617.75;10445856;28;20036;-52
2023/06/19 18:15:10;;;;;;;14.15;8.20;;;;;;;22.96;56.48;97653.91;10446175;28;20115;-53
2023/06/19 18:20:10;;;;;;;13.25;8.27;;;;;;;22.63;57.88;97653.84;10446362;28;20513;-51
2023/06/19 18:25:09;;;;;;;15.57;7.60;;;;;;;22.34;57.89;97662.31;10446880;28;20051;-52
2023/06/19 18:30:08;;;;;;;10.93;7.50;;;;;;;22.05;57.60;97670.81;10445717;28;20047;-51
2023/06/19 18:35:07;;;;;;;13.35;7.40;;;;;;;21.58;57.68;97639.59;10444920;28;20064;-53
2023/06/19 18:40:07;;;;;;;10.90;7.50;;;;;;;21.54;59.71;97692.53;10446310;28;20090;-53
2023/06/19 18:45:07;;;;;;;14.93;7.88;;;;;;;21.23;60.54;97689.59;10445754;28;20055;-52
2023/06/19 18:50:06;;;;;;;12.75;7.95;;;;;;;20.95;61.73;97703.13;10445199;28;20130;-53
2023/06/19 18:55:05;;;;;;;13.10;7.20;;;;;;;20.73;62.30;97697.91;10453804;28;20072;-52
2023/06/19 19:00:05;;;;;;;12.18;7.82;;;;;;;20.55;64.04;97704.81;10453976;28;20139;-53
2023/06/19 19:05:04;;;;;;;11.25;7.75;;;;;;;20.26;64.78;97689.28;10454308;28;20071;-51
2023/06/19 19:10:04;;;;;;;14.82;8.02;;;;;;;20.19;66.97;97714.16;10451094;28;20574;-53
2023/06/19 19:15:03;;;;;;;10.98;7.50;;;;;;;20.05;67.13;97711.22;10451031;28;20059;-53
2023/06/19 19:20:03;;;;;;;10.40;7.93;;;;;;;19.94;68.05;97719.53;10453787;28;20076;-53
2023/06/19 19:25:05;;;;;;;12.32;7.60;;;;;;;19.79;68.34;97722.75;10453477;28;20420;-51
2023/06/19 19:30:05;;;;;;;12.77;7.82;;;;;;;19.73;67.91;97726.50;10450616;28;20115;-51
2023/06/19 19:35:04;;;;;;;11.93;8.13;;;;;;;19.65;67.73;97723.31;10450802;28;20059;-51
2023/06/19 19:40:04;;;;;;;9.20;7.10;;;;;;;19.56;67.38;97718.41;10453085;28;20440;-49
2023/06/19 19:45:03;;;;;;;12.07;7.18;;;;;;;19.43;68.46;97717.94;10451905;28;20127;-51
2023/06/19 19:50:02;;;;;;;11.32;7.68;;;;;;;19.37;68.34;97721.69;10448844;28;20537;-52
2023/06/19 19:55:02;;;;;;;16.52;9.30;;;;;;;19.26;70.83;97722.97;10452580;28;20107;-51
2023/06/19 20:00:01;;;;;;;15.13;9.27;;;;;;;19.16;72.15;97715.44;10452082;28;20144;-51
2023/06/19 20:05:00;;;;;;;20.65;9.40;;;;;;;19.04;74.11;97723.72;10451134;28;20131;-52
2023/06/19 20:10:00;;;;;;;13.90;10.32;;;;;;;18.93;74.99;97724.13;10451923;28;20553;-51
2023/06/19 20:14:59;;;;;;;16.38;11.10;;;;;;;18.73;76.16;97716.91;10451344;28;20127;-52
2023/06/19 20:19:58;;;;;;;16.83;12.80;;;;;;;18.73;76.78;97726.59;10450904;28;20111;-51
2023/06/19 20:24:57;;;;;;;16.25;11.60;;;;;;;18.63;76.88;97733.03;10450375;28;20036;-52
2023/06/19 20:29:56;;;;;;;17.60;11.85;;;;;;;18.55;77.63;97739.41;10450643;28;20032;-49
2023/06/19 20:35:00;;;;;;;18.25;12.40;;;;;;;18.45;78.39;97737.97;10450479;28;20044;-52
2023/06/19 20:40:05;;;;;;;18.40;12.75;;;;;;;18.23;81.13;97739.63;10450830;28;20056;-50
2023/06/19 20:45:05;;;;;;;17.30;12.27;;;;;;;18.20;81.53;97740.56;10448370;28;20078;-51
2023/06/19 20:50:05;;;;;;;16.77;11.63;;;;;;;18.01;83.56;97748.16;10448960;28;20130;-50
2023/06/19 20:55:04;;;;;;;16.25;12.35;;;;;;;17.91;83.75;97749.34;10450597;28;20051;-52
2023/06/19 21:00:09;;;;;;;18.50;11.45;;;;;;;17.80;84.50;97748.81;10449677;28;20051;-52
2023/06/19 21:05:11;;;;;;;14.43;10.98;;;;;;;17.43;84.08;97693.00;10447571;28;20174;-51
2023/06/19 21:10:11;;;;;;;16.90;11.05;;;;;;;17.62;84.60;97745.81;10449607;28;20120;-52
2023/06/19 21:15:10;;;;;;;16.10;10.68;;;;;;;17.58;84.63;97753.81;10447954;28;20115;-52
2023/06/19 21:20:09;;;;;;;19.00;11.13;;;;;;;17.35;84.81;97723.84;10448869;28;20642;-52
2023/06/19 21:25:09;;;;;;;14.98;10.48;;;;;;;17.48;84.70;97755.84;10449844;28;20063;-49
2023/06/19 21:30:08;;;;;;;17.95;10.73;;;;;;;17.40;85.31;97768.31;10447605;28;20115;-51
2023/06/19 21:35:07;;;;;;;16.02;10.55;;;;;;;17.31;86.13;97770.28;10448358;28;20474;-51
2023/06/19 21:40:07;;;;;;;15.68;10.45;;;;;;;17.25;86.15;97766.97;10448105;28;20108;-51
2023/06/19 21:45:06;;;;;;;17.05;10.93;;;;;;;17.20;85.67;97756.63;10447890;28;20119;-50
2023/06/19 21:50:06;;;;;;;17.63;11.65;;;;;;;17.14;85.97;97762.00;10447109;28;20116;-49
2023/06/19 21:55:07;;;;;;;18.30;11.93;;;;;;;17.07;86.46;97753.44;10447960;28;20115;-52
2023/06/19 22:00:12;;;;;;;15.35;12.30;;;;;;;17.04;86.98;97757.94;10447158;28;20130;-50
2023/06/19 22:05:10;;;;;;;16.05;11.85;;;;;;;16.89;88.21;97765.31;10446014;28;20545;-51
2023/06/19 22:10:10;;;;;;;20.15;13.52;;;;;;;16.85;88.50;97757.56;10444545;28;20027;-52
2023/06/19 22:15:09;;;;;;;16.92;12.30;;;;;;;16.80;88.63;97759.41;10442919;28;20162;-52
2023/06/19 22:20:10;;;;;;;16.63;12.52;;;;;;;16.74;88.60;97765.66;10442315;28;20123;-51
2023/06/19 22:25:09;;;;;;;24.40;15.30;;;;;;;16.47;89.64;97739.25;10445760;28;20509;-51
2023/06/19 22:30:08;;;;;;;20.10;13.50;;;;;;;16.56;90.48;97766.13;10447632;28;20472;-52
2023/06/19 22:35:08;;;;;;;17.20;12.20;;;;;;;16.24;90.43;97728.50;10447346;28;20109;-52
2023/06/19 22:40:07;;;;;;;15.85;11.75;;;;;;;16.46;90.54;97757.63;10446794;28;20513;-52
2023/06/19 22:45:07;;;;;;;22.92;13.52;;;;;;;16.38;90.44;97752.59;10446825;28;20156;-51
2023/06/19 22:50:07;;;;;;;16.42;12.60;;;;;;;16.38;90.63;97765.69;10444240;28;20115;-52
2023/06/19 22:55:07;;;;;;;18.70;12.82;;;;;;;16.33;90.83;97764.94;10446254;28;20148;-51